Time;durP1;ratioP1;P1;durP2;ratioP2;P2;SDS_P1;SDS_P2;PMS_P1;PMS_P2;Temp;Humidity;BMP_temperature;BMP_pressure;BME280_temperature;BME280_humidity;BME280_pressure;Samples;Min_cycle;Max_cycle;Signal;HPM_P1;HPM_P2
2023/05/27 00:00:09;;;;;;;14.63;4.13;;;6.60;99.90;;;;;;4909743;29;20488;-67
2023/05/27 00:02:35;;;;;;;17.80;4.43;;;6.60;99.90;;;;;;4926660;29;20048;-68
2023/05/27 00:05:01;;;;;;;15.32;4.15;;;6.60;99.90;;;;;;4903236;29;20083;-67
2023/05/27 00:07:27;;;;;;;19.02;4.90;;;6.60;99.90;;;;;;4926556;29;20487;-67
2023/05/27 00:09:54;;;;;;;15.55;3.92;;;6.60;99.90;;;;;;4910792;29;20123;-68
2023/05/27 00:12:19;;;;;;;13.80;3.85;;;6.60;99.90;;;;;;4938242;29;20046;-67
2023/05/27 00:14:48;;;;;;;15.27;4.17;;;6.60;99.90;;;;;;4930295;29;20056;-67
2023/05/27 00:17:13;;;;;;;12.95;4.35;;;6.50;99.90;;;;;;4926348;29;20592;-67
2023/05/27 00:19:40;;;;;;;14.90;4.63;;;6.50;99.90;;;;;;4930407;29;20130;-67
2023/05/27 00:22:06;;;;;;;15.50;4.50;;;6.50;99.90;;;;;;4929760;29;20455;-67
2023/05/27 00:24:36;;;;;;;17.40;3.72;;;6.40;99.90;;;;;;4929868;29;20043;-67
2023/05/27 00:27:02;;;;;;;19.65;4.60;;;6.40;99.90;;;;;;4919915;29;20492;-67
2023/05/27 00:29:28;;;;;;;14.45;4.13;;;6.30;99.90;;;;;;4916751;29;20574;-67
2023/05/27 00:31:54;;;;;;;11.23;4.17;;;6.20;99.90;;;;;;4928684;29;20036;-67
2023/05/27 00:34:19;;;;;;;15.10;3.63;;;6.20;99.90;;;;;;4929841;29;20062;-67
2023/05/27 00:36:45;;;;;;;16.57;4.37;;;6.20;99.90;;;;;;4926080;29;20135;-67
2023/05/27 00:39:11;;;;;;;17.47;4.43;;;6.20;99.90;;;;;;4920918;29;20050;-67
2023/05/27 00:41:37;;;;;;;15.80;4.47;;;6.10;99.90;;;;;;4921502;29;20044;-67
2023/05/27 00:44:03;;;;;;;15.43;4.53;;;6.10;99.90;;;;;;4930235;29;20592;-68
2023/05/27 00:46:29;;;;;;;15.38;4.50;;;6.10;99.90;;;;;;4926394;29;20052;-67
2023/05/27 00:48:55;;;;;;;13.33;4.43;;;6.10;99.90;;;;;;4925320;29;20043;-67
2023/05/27 00:51:21;;;;;;;15.27;4.80;;;6.10;99.90;;;;;;4941436;29;20435;-67
2023/05/27 00:53:47;;;;;;;12.02;4.10;;;6.00;99.90;;;;;;4930473;29;20039;-67
2023/05/27 00:56:15;;;;;;;14.13;4.38;;;6.10;99.90;;;;;;4929517;29;20043;-68
2023/05/27 00:58:41;;;;;;;16.92;4.47;;;6.00;99.90;;;;;;4926276;29;20096;-67
2023/05/27 01:01:07;;;;;;;17.23;4.85;;;6.00;99.90;;;;;;4923390;29;20112;-67
2023/05/27 01:03:34;;;;;;;15.50;5.50;;;5.90;99.90;;;;;;4913611;29;20043;-67
2023/05/27 01:06:30;;;;;;;15.38;4.60;;;5.90;99.90;;;;;;4930315;29;20043;-67
2023/05/27 01:09:17;;;;;;;14.50;4.75;;;5.90;99.90;;;;;;4928714;29;20461;-67
2023/05/27 01:11:49;;;;;;;16.65;4.50;;;5.90;99.90;;;;;;4930192;29;20320;-67
2023/05/27 01:14:18;;;;;;;14.00;4.28;;;5.80;99.90;;;;;;4919901;29;20052;-67
2023/05/27 01:16:46;;;;;;;15.05;4.35;;;5.80;99.90;;;;;;4927451;29;20130;-67
2023/05/27 01:19:26;;;;;;;15.90;4.53;;;5.80;99.90;;;;;;4929702;29;20094;-67
2023/05/27 01:21:54;;;;;;;16.67;4.85;;;5.80;99.90;;;;;;4930031;29;20048;-67
2023/05/27 01:24:20;;;;;;;15.75;4.82;;;5.80;99.90;;;;;;4927910;29;20512;-67
2023/05/27 01:26:45;;;;;;;16.87;4.83;;;5.80;99.90;;;;;;4923035;29;20043;-67
2023/05/27 01:29:11;;;;;;;15.93;5.07;;;5.80;99.90;;;;;;4928203;29;20048;-67
2023/05/27 01:32:09;;;;;;;18.10;5.18;;;5.80;99.90;;;;;;4929611;29;20047;-67
2023/05/27 01:34:50;;;;;;;21.10;5.28;;;5.80;99.90;;;;;;4933730;29;20150;-67
2023/05/27 01:37:18;;;;;;;18.58;5.03;;;5.80;99.90;;;;;;4930118;29;20051;-67
2023/05/27 01:39:46;;;;;;;13.40;4.13;;;5.80;99.90;;;;;;4927383;29;20039;-68
2023/05/27 01:42:12;;;;;;;19.45;4.38;;;5.80;99.90;;;;;;4928766;29;20126;-68
2023/05/27 01:44:39;;;;;;;16.38;5.15;;;5.80;99.90;;;;;;4934754;29;20516;-68
2023/05/27 01:47:04;;;;;;;14.02;4.50;;;5.80;99.90;;;;;;4923543;29;20055;-68
2023/05/27 01:49:30;;;;;;;22.10;6.17;;;5.80;99.90;;;;;;4932236;29;20051;-68
2023/05/27 01:51:56;;;;;;;16.30;5.13;;;5.70;99.90;;;;;;4929261;29;20064;-68
2023/05/27 01:54:22;;;;;;;13.23;4.23;;;5.70;99.90;;;;;;4929458;29;20078;-68
2023/05/27 01:56:48;;;;;;;19.50;4.90;;;5.70;99.90;;;;;;4914208;29;20576;-68
2023/05/27 01:59:13;;;;;;;13.20;3.73;;;5.60;99.90;;;;;;4931931;29;20087;-68
2023/05/27 02:01:40;;;;;;;12.50;4.00;;;5.60;99.90;;;;;;4927582;29;20102;-67
2023/05/27 02:04:06;;;;;;;16.98;4.30;;;5.50;99.90;;;;;;4932633;29;20654;-67
2023/05/27 02:06:32;;;;;;;17.10;4.60;;;5.50;99.90;;;;;;4929992;29;20119;-68
2023/05/27 02:08:58;;;;;;;17.00;4.00;;;5.50;99.90;;;;;;4916377;29;20079;-67
2023/05/27 02:11:23;;;;;;;15.03;4.70;;;5.50;99.90;;;;;;4927693;29;20063;-67
2023/05/27 02:13:49;;;;;;;12.73;4.60;;;5.50;99.90;;;;;;4924855;29;20046;-67
2023/05/27 02:16:15;;;;;;;17.02;4.80;;;5.50;99.90;;;;;;4932826;29;20500;-68
2023/05/27 02:18:41;;;;;;;16.20;4.87;;;5.50;99.90;;;;;;4933156;29;20106;-67
2023/05/27 02:21:07;;;;;;;15.97;5.00;;;5.50;99.90;;;;;;4928357;29;20048;-68
2023/05/27 02:23:33;;;;;;;17.90;4.80;;;5.40;99.90;;;;;;4929854;29;20047;-68
2023/05/27 02:26:00;;;;;;;17.35;4.32;;;5.50;99.90;;;;;;4930523;29;20075;-68
2023/05/27 02:28:26;;;;;;;14.48;4.45;;;5.50;99.90;;;;;;4928598;29;20404;-68
2023/05/27 02:30:52;;;;;;;19.30;5.20;;;5.50;99.90;;;;;;4932990;29;20079;-68
2023/05/27 02:33:18;;;;;;;21.17;4.60;;;5.50;99.90;;;;;;4931134;29;20071;-67
2023/05/27 02:35:45;;;;;;;15.00;4.53;;;5.50;99.90;;;;;;4908392;29;20500;-67
2023/05/27 02:38:11;;;;;;;16.77;4.75;;;5.50;99.90;;;;;;4929953;29;20089;-67
2023/05/27 02:40:37;;;;;;;16.10;4.40;;;5.40;99.90;;;;;;4931570;29;20079;-68
2023/05/27 02:43:02;;;;;;;17.03;4.83;;;5.40;99.90;;;;;;4933863;29;20058;-68
2023/05/27 02:45:28;;;;;;;17.47;4.03;;;5.40;99.90;;;;;;4935369;29;20040;-68
2023/05/27 02:47:55;;;;;;;14.87;4.10;;;5.40;99.90;;;;;;4931902;29;20062;-67
2023/05/27 02:50:21;;;;;;;20.95;4.40;;;5.40;99.90;;;;;;4926213;29;20083;-68
2023/05/27 02:52:46;;;;;;;19.63;4.47;;;5.40;99.90;;;;;;4926990;29;20043;-67
2023/05/27 02:55:12;;;;;;;15.87;3.97;;;5.50;99.90;;;;;;4931603;29;20303;-68
2023/05/27 02:57:38;;;;;;;14.33;4.07;;;5.50;99.90;;;;;;4932342;29;20075;-68
2023/05/27 03:00:04;;;;;;;14.27;3.97;;;5.50;99.90;;;;;;4930041;29;20032;-68
2023/05/27 03:02:30;;;;;;;12.23;3.50;;;5.50;99.90;;;;;;4926298;29;20073;-68
2023/05/27 03:04:57;;;;;;;9.73;3.53;;;5.50;99.90;;;;;;4931270;29;20079;-68
2023/05/27 03:07:23;;;;;;;12.02;4.45;;;5.50;99.90;;;;;;4933261;29;20073;-68
2023/05/27 03:09:48;;;;;;;17.27;4.68;;;5.40;99.90;;;;;;4929931;29;20030;-68
2023/05/27 03:12:14;;;;;;;16.70;4.03;;;5.40;99.90;;;;;;4930311;29;20475;-68
2023/05/27 03:14:40;;;;;;;17.10;3.87;;;5.40;99.90;;;;;;4922921;29;20034;-68
2023/05/27 03:17:05;;;;;;;16.87;4.70;;;5.50;99.90;;;;;;4925456;29;20131;-68
2023/05/27 03:19:31;;;;;;;14.53;3.73;;;5.50;99.90;;;;;;4931365;29;20043;-68
2023/05/27 03:21:57;;;;;;;14.30;4.00;;;5.50;99.90;;;;;;4929517;29;20467;-68
2023/05/27 03:24:23;;;;;;;16.83;4.20;;;5.50;99.90;;;;;;4912991;29;20044;-67
2023/05/27 03:26:48;;;;;;;15.87;3.90;;;5.50;99.90;;;;;;4929177;29;20127;-67
2023/05/27 03:29:15;;;;;;;14.17;3.57;;;5.60;99.90;;;;;;4924115;29;20040;-68
2023/05/27 03:31:41;;;;;;;13.35;4.00;;;5.60;99.90;;;;;;4931217;29;20039;-68
2023/05/27 03:34:07;;;;;;;22.53;4.57;;;5.60;99.90;;;;;;4925394;29;20043;-68
2023/05/27 03:36:34;;;;;;;18.87;3.70;;;5.70;99.90;;;;;;4931497;29;20187;-68
2023/05/27 03:39:00;;;;;;;16.05;3.97;;;5.80;99.90;;;;;;4930954;29;20044;-68
2023/05/27 03:41:26;;;;;;;9.57;3.07;;;5.80;99.90;;;;;;4930369;29;20416;-68
2023/05/27 03:43:52;;;;;;;19.07;4.13;;;5.90;99.90;;;;;;4924856;29;20059;-68
2023/05/27 03:46:17;;;;;;;14.07;3.83;;;6.00;99.90;;;;;;4929267;29;20043;-68
2023/05/27 03:48:43;;;;;;;20.60;4.40;;;6.10;99.90;;;;;;4931220;29;20585;-68
2023/05/27 03:51:09;;;;;;;19.70;4.20;;;6.20;99.90;;;;;;4931023;29;20392;-68
2023/05/27 03:53:35;;;;;;;14.63;3.77;;;6.30;99.90;;;;;;4926851;29;20048;-68
2023/05/27 03:56:01;;;;;;;24.63;4.82;;;6.40;99.90;;;;;;4929152;29;20071;-68
2023/05/27 03:58:26;;;;;;;15.23;3.87;;;6.50;99.90;;;;;;4930722;29;20078;-68
2023/05/27 04:00:52;;;;;;;14.27;4.43;;;6.60;99.90;;;;;;4930863;29;20078;-68
2023/05/27 04:03:18;;;;;;;20.05;4.40;;;6.70;99.90;;;;;;4929811;29;20468;-68
2023/05/27 04:05:44;;;;;;;19.07;4.03;;;6.80;99.90;;;;;;4912093;29;20126;-68
2023/05/27 04:08:10;;;;;;;20.87;4.60;;;6.90;99.90;;;;;;4930823;29;20043;-68
2023/05/27 04:10:35;;;;;;;17.07;4.13;;;7.00;99.90;;;;;;4937375;29;20031;-68
2023/05/27 04:13:01;;;;;;;19.03;3.73;;;7.10;99.90;;;;;;4938989;29;20130;-68
2023/05/27 04:15:27;;;;;;;20.93;4.80;;;7.10;99.90;;;;;;4929026;29;20040;-68
2023/05/27 04:17:52;;;;;;;15.13;4.03;;;7.20;99.90;;;;;;4923512;29;20460;-68
2023/05/27 04:20:18;;;;;;;22.83;4.87;;;7.30;99.90;;;;;;4921725;29;20132;-68
2023/05/27 04:22:44;;;;;;;17.13;4.70;;;7.40;99.90;;;;;;4930389;29;20036;-68
2023/05/27 04:25:10;;;;;;;16.57;3.80;;;7.40;99.90;;;;;;4924741;29;20051;-68
2023/05/27 04:27:39;;;;;;;18.15;4.35;;;7.50;99.90;;;;;;4923830;29;20068;-68
2023/05/27 04:30:06;;;;;;;23.05;4.82;;;7.50;99.90;;;;;;4922774;29;20043;-68
2023/05/27 04:32:32;;;;;;;17.25;5.20;;;7.60;99.90;;;;;;4922617;29;20044;-68
2023/05/27 04:34:59;;;;;;;17.08;4.28;;;7.70;99.90;;;;;;4913241;29;20118;-68
2023/05/27 04:37:27;;;;;;;18.67;4.53;;;7.80;99.90;;;;;;4927268;29;20789;-68
2023/05/27 04:39:56;;;;;;;21.75;4.97;;;7.90;99.90;;;;;;4923243;29;20708;-68
2023/05/27 04:42:25;;;;;;;14.75;4.00;;;8.10;99.90;;;;;;4929516;29;20114;-68
2023/05/27 04:44:51;;;;;;;22.13;4.90;;;8.20;99.90;;;;;;4927733;29;20051;-68
2023/05/27 04:47:17;;;;;;;13.90;4.13;;;8.30;99.90;;;;;;4927507;29;20052;-68
2023/05/27 04:49:46;;;;;;;16.85;4.30;;;8.40;99.90;;;;;;4925288;29;20039;-68
2023/05/27 04:52:12;;;;;;;15.55;4.85;;;8.50;99.90;;;;;;4929722;29;20047;-68
2023/05/27 04:54:37;;;;;;;20.87;4.87;;;8.60;99.90;;;;;;4927173;29;20119;-68
2023/05/27 04:57:03;;;;;;;19.50;4.33;;;8.70;99.90;;;;;;4926332;29;20047;-68
2023/05/27 05:02:21;;;;;;;14.40;4.53;;;8.90;99.90;;;;;;4928880;29;20047;-68
2023/05/27 05:04:47;;;;;;;13.32;4.07;;;9.00;99.90;;;;;;4925947;29;20048;-68
2023/05/27 05:07:13;;;;;;;16.70;4.57;;;9.10;99.90;;;;;;4923643;29;20100;-68
2023/05/27 05:09:39;;;;;;;18.05;4.53;;;9.20;99.90;;;;;;4923598;29;20043;-68
2023/05/27 05:12:06;;;;;;;14.23;4.70;;;9.30;99.90;;;;;;4929158;29;20847;-68
2023/05/27 05:14:31;;;;;;;13.55;4.75;;;9.40;99.90;;;;;;4915082;29;20051;-68
2023/05/27 05:16:57;;;;;;;18.73;4.43;;;9.40;99.90;;;;;;4924575;29;20074;-68
2023/05/27 05:19:23;;;;;;;15.53;4.90;;;9.50;99.90;;;;;;4931883;29;20040;-68
2023/05/27 05:21:49;;;;;;;18.70;5.37;;;9.50;99.90;;;;;;4933676;29;20051;-68
2023/05/27 05:24:16;;;;;;;15.87;4.67;;;9.70;99.90;;;;;;4933312;29;20048;-68
2023/05/27 05:26:44;;;;;;;18.10;5.05;;;9.80;99.90;;;;;;4933697;29;20092;-68
2023/05/27 05:29:10;;;;;;;16.83;4.50;;;10.00;99.90;;;;;;4932343;29;20039;-68
2023/05/27 05:31:36;;;;;;;13.63;4.13;;;10.30;99.90;;;;;;4933340;29;20143;-68
2023/05/27 05:34:02;;;;;;;17.13;5.03;;;10.80;99.90;;;;;;4925568;29;20051;-68
2023/05/27 05:36:27;;;;;;;19.77;4.93;;;11.50;99.90;;;;;;4929207;29;20047;-68
2023/05/27 05:38:53;;;;;;;18.93;5.27;;;12.30;99.40;;;;;;4933211;29;20062;-69
2023/05/27 05:41:18;;;;;;;16.63;4.57;;;13.00;96.90;;;;;;4934856;29;20079;-69
2023/05/27 05:43:44;;;;;;;13.10;4.20;;;13.30;93.10;;;;;;4931910;29;20095;-69
2023/05/27 05:46:10;;;;;;;14.80;4.10;;;13.20;90.60;;;;;;4931846;29;20039;-68
2023/05/27 05:48:36;;;;;;;15.20;3.83;;;13.00;91.10;;;;;;4932860;29;20069;-68
2023/05/27 05:51:02;;;;;;;20.27;4.20;;;12.90;92.20;;;;;;4924550;29;20084;-68
2023/05/27 05:53:28;;;;;;;15.47;4.47;;;12.90;92.50;;;;;;4917056;29;20047;-68
2023/05/27 05:55:54;;;;;;;16.30;3.97;;;13.10;91.40;;;;;;4932986;29;20051;-68
2023/05/27 05:58:19;;;;;;;14.13;4.03;;;13.20;89.80;;;;;;4933043;29;20050;-68
2023/05/27 06:00:45;;;;;;;15.37;4.10;;;13.20;88.90;;;;;;4928170;29;20052;-69
2023/05/27 06:03:11;;;;;;;17.07;4.00;;;13.40;88.00;;;;;;4931990;29;20062;-69
2023/05/27 06:05:37;;;;;;;17.90;3.87;;;13.60;87.60;;;;;;4931382;29;20280;-69
2023/05/27 06:08:02;;;;;;;15.97;4.23;;;13.90;85.90;;;;;;4922611;29;20491;-69
2023/05/27 06:10:28;;;;;;;21.83;4.37;;;13.90;83.20;;;;;;4930526;29;20130;-69
2023/05/27 06:12:54;;;;;;;19.63;4.50;;;13.70;84.60;;;;;;4931973;29;20036;-69
2023/05/27 06:15:20;;;;;;;16.90;4.13;;;13.50;84.40;;;;;;4932773;29;20386;-69
2023/05/27 06:17:47;;;;;;;12.87;3.90;;;13.30;85.40;;;;;;4913919;29;20052;-69
2023/05/27 06:20:13;;;;;;;12.93;3.77;;;13.10;86.00;;;;;;4933466;29;20628;-69
2023/05/27 06:22:38;;;;;;;12.13;3.30;;;12.90;87.30;;;;;;4927078;29;20335;-68
2023/05/27 06:25:04;;;;;;;15.67;4.00;;;12.80;88.50;;;;;;4927694;29;20048;-69
2023/05/27 06:27:30;;;;;;;13.03;3.83;;;12.80;87.80;;;;;;4931473;29;20492;-69
2023/05/27 06:29:56;;;;;;;17.97;4.00;;;12.70;88.20;;;;;;4932404;29;20287;-69
2023/05/27 06:32:22;;;;;;;17.07;4.20;;;12.70;88.90;;;;;;4930887;29;20372;-68
2023/05/27 06:34:48;;;;;;;19.70;4.10;;;12.60;87.20;;;;;;4930962;29;21001;-68
2023/05/27 06:37:13;;;;;;;13.63;3.63;;;12.50;88.30;;;;;;4927064;29;20040;-68
2023/05/27 06:39:39;;;;;;;16.33;3.97;;;12.50;88.70;;;;;;4903196;29;20040;-68
2023/05/27 06:42:05;;;;;;;12.53;3.70;;;12.60;89.50;;;;;;4931237;29;20047;-68
2023/05/27 06:44:31;;;;;;;15.00;3.50;;;12.60;88.80;;;;;;4911195;29;20040;-68
2023/05/27 06:46:58;;;;;;;14.47;4.07;;;12.80;88.90;;;;;;4931936;29;20332;-68
2023/05/27 06:49:23;;;;;;;14.00;3.80;;;12.80;87.60;;;;;;4929231;29;20359;-68
2023/05/27 06:51:49;;;;;;;16.97;4.13;;;13.00;87.50;;;;;;4931628;29;20048;-68
2023/05/27 06:54:15;;;;;;;17.17;4.13;;;13.20;87.20;;;;;;4928039;29;20122;-68
2023/05/27 06:56:40;;;;;;;17.20;4.03;;;13.40;85.20;;;;;;4932167;29;20381;-69
2023/05/27 06:59:06;;;;;;;12.43;4.10;;;13.60;85.00;;;;;;4933864;29;20043;-69
2023/05/27 07:01:32;;;;;;;14.50;3.73;;;13.70;84.50;;;;;;4930411;29;20047;-69
2023/05/27 07:03:58;;;;;;;14.40;3.90;;;14.00;84.00;;;;;;4927367;29;20051;-69
2023/05/27 07:06:24;;;;;;;13.97;4.03;;;14.40;82.30;;;;;;4930258;29;20791;-69
2023/05/27 07:08:49;;;;;;;15.83;3.77;;;14.50;81.00;;;;;;4932699;29;20107;-69
2023/05/27 07:11:16;;;;;;;17.50;4.30;;;14.40;79.90;;;;;;4938056;29;20059;-68
2023/05/27 07:13:41;;;;;;;16.63;4.20;;;14.40;78.80;;;;;;4925794;29;20043;-69
2023/05/27 07:16:07;;;;;;;12.33;3.23;;;14.20;79.60;;;;;;4927279;29;20295;-68
2023/05/27 07:18:33;;;;;;;12.37;3.33;;;14.00;81.00;;;;;;4933353;29;20056;-68
2023/05/27 07:20:58;;;;;;;14.07;3.60;;;13.90;82.40;;;;;;4934527;29;20051;-68
2023/05/27 07:23:24;;;;;;;15.63;3.63;;;14.00;81.60;;;;;;4933587;29;20047;-68
2023/05/27 07:25:50;;;;;;;12.03;2.83;;;14.10;80.80;;;;;;4938395;29;20043;-68
2023/05/27 07:28:16;;;;;;;21.10;4.00;;;14.20;80.90;;;;;;4922364;29;20541;-69
2023/05/27 07:30:42;;;;;;;14.80;3.90;;;14.20;80.00;;;;;;4936259;29;20102;-69
2023/05/27 07:33:08;;;;;;;14.07;4.23;;;14.30;81.60;;;;;;4930926;29;20969;-68
2023/05/27 07:35:33;;;;;;;11.87;3.43;;;14.50;82.70;;;;;;4937541;29;20113;-68
2023/05/27 07:38:00;;;;;;;18.13;3.73;;;14.60;81.50;;;;;;4920301;29;20549;-68
2023/05/27 07:40:26;;;;;;;15.37;3.43;;;14.70;79.10;;;;;;4933098;29;20249;-68
2023/05/27 07:42:51;;;;;;;13.77;4.00;;;14.70;80.30;;;;;;4936380;29;20281;-68
2023/05/27 07:45:17;;;;;;;17.03;4.07;;;14.80;79.50;;;;;;4936830;29;20118;-68
2023/05/27 07:47:43;;;;;;;10.13;3.37;;;14.80;77.70;;;;;;4935750;29;20412;-68
2023/05/27 07:50:11;;;;;;;15.93;3.83;;;14.70;78.30;;;;;;4937896;29;20051;-68
2023/05/27 07:52:39;;;;;;;15.10;3.83;;;14.70;79.90;;;;;;4941247;29;20035;-68
2023/05/27 07:55:05;;;;;;;16.87;3.60;;;14.70;79.70;;;;;;4916768;29;20827;-68
2023/05/27 07:57:31;;;;;;;13.73;3.70;;;14.90;80.10;;;;;;4937415;29;20296;-68
2023/05/27 07:59:57;;;;;;;12.40;3.87;;;15.00;78.80;;;;;;4938388;29;20644;-68
2023/05/27 08:02:23;;;;;;;16.03;3.63;;;15.00;78.70;;;;;;4919950;29;20039;-68
2023/05/27 08:04:49;;;;;;;15.77;3.93;;;15.00;78.20;;;;;;4920992;29;20046;-68
2023/05/27 08:07:15;;;;;;;17.90;4.80;;;15.10;79.50;;;;;;4937471;29;20298;-68
2023/05/27 08:09:40;;;;;;;15.40;4.00;;;15.20;77.60;;;;;;4942930;29;20291;-68
2023/05/27 08:12:06;;;;;;;15.27;4.07;;;15.10;79.00;;;;;;4933054;29;20067;-68
2023/05/27 08:14:33;;;;;;;18.07;4.37;;;15.30;77.10;;;;;;4930679;29;20126;-68
2023/05/27 08:16:58;;;;;;;12.23;3.87;;;15.30;78.00;;;;;;4926284;29;20043;-68
2023/05/27 08:19:24;;;;;;;14.20;3.77;;;15.40;79.00;;;;;;4914288;29;20892;-68
2023/05/27 08:21:50;;;;;;;17.10;4.30;;;15.60;79.00;;;;;;4932851;29;20118;-68
2023/05/27 08:24:16;;;;;;;14.57;3.63;;;15.80;76.70;;;;;;4931737;29;20146;-68
2023/05/27 08:26:42;;;;;;;12.80;3.90;;;15.80;76.20;;;;;;4919557;29;20062;-68
2023/05/27 08:29:07;;;;;;;14.33;4.50;;;16.00;77.10;;;;;;4911886;29;20326;-68
2023/05/27 08:31:33;;;;;;;16.07;4.13;;;16.20;76.50;;;;;;4934385;29;20063;-68
2023/05/27 08:33:59;;;;;;;17.67;4.70;;;16.30;76.20;;;;;;4938324;29;20051;-68
2023/05/27 08:36:24;;;;;;;14.60;3.90;;;16.40;75.40;;;;;;4937365;29;20049;-68
2023/05/27 08:38:50;;;;;;;13.50;3.93;;;16.50;75.00;;;;;;4938194;29;20050;-68
2023/05/27 08:41:16;;;;;;;14.90;3.73;;;16.60;75.00;;;;;;4933065;29;20101;-68
2023/05/27 08:43:43;;;;;;;15.20;4.33;;;16.80;76.80;;;;;;4937023;29;20484;-68
2023/05/27 08:46:09;;;;;;;14.30;3.80;;;17.10;72.50;;;;;;4932489;29;20586;-68
2023/05/27 08:48:35;;;;;;;15.17;3.70;;;17.00;72.20;;;;;;4925665;29;20284;-68
2023/05/27 08:51:01;;;;;;;13.77;3.73;;;16.90;72.80;;;;;;4929779;29;20046;-68
2023/05/27 08:53:28;;;;;;;15.00;4.10;;;16.80;72.70;;;;;;4927627;29;20345;-68
2023/05/27 08:55:57;;;;;;;18.20;3.90;;;16.80;74.80;;;;;;4933782;29;20319;-68
2023/05/27 08:58:23;;;;;;;15.23;3.63;;;16.90;74.10;;;;;;4916303;29;20287;-68
2023/05/27 09:00:49;;;;;;;12.73;4.30;;;17.00;74.40;;;;;;4927659;29;20854;-68
2023/05/27 09:03:16;;;;;;;11.60;3.80;;;17.10;73.10;;;;;;4930360;29;20311;-68
2023/05/27 09:05:42;;;;;;;14.30;3.70;;;17.00;73.60;;;;;;4912352;29;20047;-68
2023/05/27 09:08:07;;;;;;;14.03;4.10;;;17.00;72.70;;;;;;4929058;29;20283;-68
2023/05/27 09:10:38;;;;;;;16.83;4.40;;;16.90;71.70;;;;;;4929512;29;20048;-68
2023/05/27 09:13:04;;;;;;;12.10;3.57;;;16.90;71.40;;;;;;4914026;29;20134;-68
2023/05/27 09:15:34;;;;;;;14.83;4.07;;;16.90;73.00;;;;;;4930219;29;20485;-68
2023/05/27 09:18:02;;;;;;;15.03;4.90;;;17.00;74.30;;;;;;4909054;29;20047;-68
2023/05/27 09:20:29;;;;;;;12.90;3.90;;;17.20;72.00;;;;;;4930261;29;20319;-68
2023/05/27 09:23:00;;;;;;;14.07;4.03;;;17.20;73.10;;;;;;4928042;29;20819;-68
2023/05/27 09:25:27;;;;;;;15.80;5.17;;;17.40;74.30;;;;;;4908681;29;20307;-68
2023/05/27 09:27:53;;;;;;;19.70;4.53;;;17.60;71.30;;;;;;4926740;29;20283;-68
2023/05/27 09:30:20;;;;;;;13.87;4.20;;;17.60;71.60;;;;;;4923832;29;20363;-68
2023/05/27 09:32:46;;;;;;;13.53;4.30;;;17.70;72.50;;;;;;4922172;29;20290;-68
2023/05/27 09:35:13;;;;;;;13.57;4.27;;;17.90;70.80;;;;;;4925665;29;20301;-68
2023/05/27 09:37:39;;;;;;;13.97;4.03;;;17.90;72.20;;;;;;4924443;29;20635;-68
2023/05/27 09:40:10;;;;;;;11.70;3.93;;;18.00;70.20;;;;;;4904116;29;20374;-68
2023/05/27 09:42:43;;;;;;;17.87;4.87;;;18.10;70.70;;;;;;4921394;29;20146;-68
2023/05/27 09:45:17;;;;;;;15.23;4.27;;;18.10;71.10;;;;;;4915487;29;20796;-68
2023/05/27 09:47:47;;;;;;;13.05;3.88;;;18.10;69.00;;;;;;4918815;29;20308;-68
2023/05/27 09:50:15;;;;;;;17.67;4.50;;;18.00;69.60;;;;;;4925935;29;20058;-68
2023/05/27 09:52:43;;;;;;;14.63;4.40;;;17.90;69.80;;;;;;4923973;29;20319;-68
2023/05/27 09:55:11;;;;;;;14.67;4.63;;;17.90;71.20;;;;;;4922632;29;20908;-69
2023/05/27 09:57:38;;;;;;;15.57;4.90;;;18.00;70.70;;;;;;4923408;29;20288;-68
2023/05/27 10:00:11;;;;;;;19.03;4.83;;;18.00;69.40;;;;;;4908542;29;20314;-68
2023/05/27 10:02:45;;;;;;;15.43;4.47;;;18.00;68.60;;;;;;4930186;29;20298;-68
2023/05/27 10:05:16;;;;;;;13.47;4.20;;;17.90;69.80;;;;;;4930060;29;20318;-68
2023/05/27 10:07:43;;;;;;;19.33;4.93;;;18.00;70.60;;;;;;4931492;29;20350;-68
2023/05/27 10:10:17;;;;;;;20.20;5.17;;;18.10;67.60;;;;;;4916585;29;20290;-68
2023/05/27 10:12:45;;;;;;;13.97;4.27;;;18.10;67.00;;;;;;4932671;29;20283;-68
2023/05/27 10:15:27;;;;;;;15.20;4.23;;;18.10;66.70;;;;;;4932471;29;20370;-68
2023/05/27 10:18:02;;;;;;;16.80;5.57;;;18.10;67.80;;;;;;4924954;29;20303;-68
2023/05/27 10:20:31;;;;;;;15.30;4.60;;;18.10;68.60;;;;;;4928328;29;20283;-68
2023/05/27 10:23:14;;;;;;;17.07;5.10;;;18.20;69.00;;;;;;4914494;29;20452;-68
2023/05/27 10:25:48;;;;;;;16.63;4.47;;;18.30;69.00;;;;;;4925291;29;20350;-68
2023/05/27 10:28:43;;;;;;;17.00;5.43;;;18.30;69.60;;;;;;4927673;29;20302;-68
2023/05/27 10:31:17;;;;;;;13.73;5.47;;;18.50;69.30;;;;;;4913167;29;20300;-69
2023/05/27 10:33:47;;;;;;;14.50;4.67;;;18.50;68.90;;;;;;4917321;29;20176;-69
2023/05/27 10:36:13;;;;;;;14.73;4.97;;;18.70;69.20;;;;;;4910197;29;20303;-69
2023/05/27 10:38:41;;;;;;;13.30;4.67;;;18.70;67.80;;;;;;4908950;29;20315;-69
2023/05/27 10:41:08;;;;;;;15.60;4.40;;;18.70;66.90;;;;;;4923289;29;20827;-69
2023/05/27 10:43:37;;;;;;;12.73;4.57;;;18.60;66.80;;;;;;4926166;29;20309;-68
2023/05/27 10:46:11;;;;;;;13.27;4.50;;;18.80;66.50;;;;;;4926568;29;20307;-68
2023/05/27 10:48:39;;;;;;;16.13;5.20;;;18.90;65.80;;;;;;4930930;29;20296;-68
2023/05/27 10:51:09;;;;;;;16.87;5.67;;;18.90;66.50;;;;;;4925561;29;20036;-69
2023/05/27 10:53:37;;;;;;;13.33;4.57;;;18.90;65.80;;;;;;4930500;29;20379;-69
2023/05/27 10:56:04;;;;;;;10.03;4.40;;;18.90;65.40;;;;;;4929249;29;20111;-69
2023/05/27 10:58:34;;;;;;;15.20;5.00;;;18.90;62.60;;;;;;4936561;29;20662;-69
2023/05/27 11:01:07;;;;;;;19.67;5.97;;;19.00;63.20;;;;;;4898426;29;20387;-69
2023/05/27 11:03:33;;;;;;;21.53;5.10;;;19.20;63.40;;;;;;4900786;29;20299;-68
2023/05/27 11:05:58;;;;;;;15.23;5.03;;;19.10;63.40;;;;;;4926182;29;20047;-69
2023/05/27 11:08:24;;;;;;;14.30;4.97;;;19.10;62.40;;;;;;4924536;29;20478;-69
2023/05/27 11:10:50;;;;;;;14.80;5.80;;;19.20;63.90;;;;;;4931872;29;20719;-68
2023/05/27 11:13:16;;;;;;;14.73;5.23;;;19.30;63.30;;;;;;4928461;29;20066;-68
2023/05/27 11:15:41;;;;;;;14.90;5.33;;;19.40;62.90;;;;;;4927246;29;20044;-68
2023/05/27 11:18:08;;;;;;;17.27;5.30;;;19.50;62.70;;;;;;4911768;29;20036;-69
2023/05/27 11:20:38;;;;;;;15.33;5.43;;;19.60;63.00;;;;;;4915002;29;20032;-69
2023/05/27 11:23:04;;;;;;;16.87;5.10;;;19.80;62.40;;;;;;4913584;29;20511;-69
2023/05/27 11:25:44;;;;;;;18.70;5.30;;;19.90;61.30;;;;;;4928458;29;20047;-69
2023/05/27 11:28:16;;;;;;;14.77;5.47;;;20.00;61.20;;;;;;4929842;29;20035;-70
2023/05/27 11:30:42;;;;;;;15.40;5.73;;;20.10;59.30;;;;;;4923314;29;20095;-70
2023/05/27 11:33:08;;;;;;;13.87;4.80;;;20.10;61.10;;;;;;4916793;29;20551;-70
2023/05/27 11:35:34;;;;;;;15.90;5.50;;;20.10;59.60;;;;;;4929910;29;20066;-70
2023/05/27 11:38:02;;;;;;;13.70;5.07;;;20.10;59.70;;;;;;4935076;29;20043;-70
2023/05/27 11:40:36;;;;;;;15.93;5.83;;;20.10;60.00;;;;;;4929392;29;20609;-70
2023/05/27 11:43:02;;;;;;;16.58;5.47;;;20.20;59.00;;;;;;4928911;29;20122;-70
2023/05/27 11:45:28;;;;;;;14.47;5.13;;;20.20;59.70;;;;;;4924801;29;20127;-70
2023/05/27 11:47:55;;;;;;;22.17;6.07;;;20.30;58.40;;;;;;4933242;29;20148;-71
2023/05/27 11:50:21;;;;;;;13.03;4.97;;;20.30;57.00;;;;;;4907152;29;20408;-71
2023/05/27 11:52:54;;;;;;;12.10;4.87;;;20.30;57.90;;;;;;4926296;29;20126;-70
2023/05/27 11:55:21;;;;;;;12.43;5.07;;;20.30;58.20;;;;;;4921158;29;20059;-70
2023/05/27 11:57:46;;;;;;;15.73;5.30;;;20.40;58.80;;;;;;4930146;29;20047;-71
2023/05/27 12:00:13;;;;;;;14.53;5.20;;;20.50;58.90;;;;;;4925098;29;20058;-71
2023/05/27 12:02:38;;;;;;;11.67;4.67;;;20.60;58.40;;;;;;4926088;29;20112;-70
2023/05/27 12:05:07;;;;;;;16.73;5.33;;;20.70;56.40;;;;;;4928643;29;20126;-70
2023/05/27 12:07:33;;;;;;;15.13;5.30;;;20.60;57.80;;;;;;4934450;29;20036;-70
2023/05/27 12:09:59;;;;;;;18.23;5.20;;;20.70;58.30;;;;;;4927770;29;20063;-71
2023/05/27 12:12:25;;;;;;;15.60;5.50;;;20.80;57.00;;;;;;4926529;29;20126;-71
2023/05/27 12:14:50;;;;;;;14.40;5.30;;;20.70;54.60;;;;;;4923115;29;20065;-71
2023/05/27 12:17:16;;;;;;;14.67;5.10;;;20.70;56.10;;;;;;4925483;29;20158;-71
2023/05/27 12:19:42;;;;;;;14.57;5.50;;;20.70;56.70;;;;;;4928809;29;20058;-71
2023/05/27 12:22:07;;;;;;;11.67;5.20;;;20.70;57.50;;;;;;4929144;29;20054;-71
2023/05/27 12:24:34;;;;;;;14.50;5.87;;;20.90;57.00;;;;;;4932117;28;20124;-71
2023/05/27 12:27:01;;;;;;;19.27;6.17;;;20.90;56.60;;;;;;4931216;29;20048;-71
2023/05/27 12:29:28;;;;;;;16.73;6.33;;;21.00;54.80;;;;;;4930621;29;20044;-71
2023/05/27 12:31:53;;;;;;;14.87;5.50;;;21.00;54.60;;;;;;4935613;29;20039;-72
2023/05/27 12:34:19;;;;;;;12.53;5.73;;;20.90;55.40;;;;;;4932799;29;20058;-71
2023/05/27 12:36:45;;;;;;;14.40;6.17;;;20.90;56.20;;;;;;4920768;29;20054;-70
2023/05/27 12:39:10;;;;;;;12.47;6.00;;;21.00;57.20;;;;;;4924206;29;20134;-70
2023/05/27 12:41:37;;;;;;;12.50;6.07;;;21.10;55.30;;;;;;4927583;29;20075;-70